Time,TemperatureF,DewpointF,PressureIn,WindDirection,WindDirectionDegrees,WindSpeedMPH,WindSpeedGustMPH,Humidity,HourlyPrecipIn,Conditions,Clouds,dailyrainin,SoftwareType,DateUTC
2014-09-30 00:13:00,61.0,54.0,29.88,WSW,253,0.0,0.0,77,0.00,,,0.00,,2014-09-30 04:13:00,
2014-09-30 00:24:00,61.0,54.0,29.88,WSW,253,0.0,0.0,78,0.00,,,0.00,,2014-09-30 04:24:00,
2014-09-30 00:43:00,60.0,53.0,29.87,WSW,253,0.0,0.0,78,0.00,,,0.00,,2014-09-30 04:43:00,
2014-09-30 00:53:00,60.0,53.0,29.87,WSW,253,0.0,0.0,79,0.00,,,0.00,,2014-09-30 04:53:00,
2014-09-30 01:13:00,59.0,53.0,29.87,WSW,253,0.0,0.0,81,0.00,,,0.00,,2014-09-30 05:13:00,
2014-09-30 01:22:00,59.0,53.0,29.87,WSW,253,0.0,0.0,81,0.00,,,0.00,,2014-09-30 05:22:00,
2014-09-30 01:43:00,58.0,53.0,29.87,WSW,253,0.0,0.0,83,0.00,,,0.00,,2014-09-30 05:43:00,
2014-09-30 01:52:00,58.0,53.0,29.87,WSW,253,0.0,0.0,84,0.00,,,0.00,,2014-09-30 05:52:00,
2014-09-30 02:22:00,57.0,53.0,29.87,WSW,253,0.0,0.0,86,0.00,,,0.00,,2014-09-30 06:22:00,
2014-09-30 02:42:00,57.0,53.0,29.87,WSW,253,0.0,0.0,87,0.00,,,0.00,,2014-09-30 06:42:00,
2014-09-30 02:53:00,57.0,53.0,29.88,WSW,253,0.0,0.0,87,0.00,,,0.00,,2014-09-30 06:53:00,
2014-09-30 03:23:00,56.0,52.0,29.87,WSW,253,0.0,0.0,88,0.00,,,0.00,,2014-09-30 07:23:00,
2014-09-30 03:42:00,56.0,53.0,29.86,WSW,253,0.0,0.0,89,0.00,,,0.00,,2014-09-30 07:42:00,
2014-09-30 03:52:00,56.0,53.0,29.86,WSW,253,0.0,0.0,89,0.00,,,0.00,,2014-09-30 07:52:00,
2014-09-30 04:23:00,55.0,52.0,29.86,WSW,253,0.0,0.0,90,0.00,,,0.00,,2014-09-30 08:23:00,
2014-09-30 04:42:00,55.0,52.0,29.86,WSW,253,0.0,0.0,91,0.00,,,0.00,,2014-09-30 08:42:00,
2014-09-30 04:52:00,55.0,52.0,29.86,WSW,253,0.0,0.0,91,0.00,,,0.00,,2014-09-30 08:52:00,
2014-09-30 05:12:00,55.0,52.0,29.85,WSW,253,0.0,0.0,91,0.00,,,0.00,,2014-09-30 09:12:00,
2014-09-30 05:22:00,55.0,52.0,29.85,WSW,253,0.0,0.0,91,0.00,,,0.00,,2014-09-30 09:22:00,
2014-09-30 05:44:00,55.0,52.0,29.86,WSW,253,0.0,0.0,91,0.00,,,0.00,,2014-09-30 09:44:00,
2014-09-30 05:53:00,55.0,52.0,29.86,WSW,253,0.0,0.0,91,0.00,,,0.00,,2014-09-30 09:53:00,
2014-09-30 06:12:00,54.0,52.0,29.86,WSW,253,0.0,0.0,92,0.00,,,0.00,,2014-09-30 10:12:00,
2014-09-30 06:23:00,54.0,52.0,29.86,WSW,253,0.0,0.0,92,0.00,,,0.00,,2014-09-30 10:23:00,
2014-09-30 06:54:00,54.0,52.0,29.86,WSW,253,0.0,0.0,92,0.00,,,0.00,,2014-09-30 10:54:00,
2014-09-30 07:22:00,54.0,52.0,29.87,WSW,253,0.0,0.0,93,0.00,,,0.00,,2014-09-30 11:22:00,
2014-09-30 07:42:00,54.0,52.0,29.87,WSW,253,0.0,0.0,93,0.00,,,0.00,,2014-09-30 11:42:00,
2014-09-30 07:53:00,54.0,52.0,29.88,WSW,253,0.0,0.0,93,0.00,,,0.00,,2014-09-30 11:53:00,
2014-09-30 08:12:00,54.0,52.0,29.88,WSW,253,0.0,0.0,93,0.00,,,0.00,,2014-09-30 12:12:00,
2014-09-30 08:22:00,54.0,52.0,29.88,WSW,253,0.0,1.0,94,0.00,,,0.00,,2014-09-30 12:22:00,
2014-09-30 08:42:00,55.0,53.0,29.89,WSW,257,1.0,3.0,94,0.00,,,0.00,,2014-09-30 12:42:00,
2014-09-30 08:52:00,55.0,53.0,29.89,WSW,257,0.0,3.0,94,0.00,,,0.00,,2014-09-30 12:52:00,
2014-09-30 09:22:00,58.0,56.0,29.89,WSW,257,0.0,0.0,92,0.00,,,0.00,,2014-09-30 13:22:00,
2014-09-30 09:42:00,61.0,56.0,29.88,WSW,257,1.0,3.0,85,0.00,,,0.00,,2014-09-30 13:42:00,
2014-09-30 09:52:00,62.0,55.0,29.88,WSW,257,1.0,2.0,78,0.00,,,0.00,,2014-09-30 13:52:00,
2014-09-30 10:12:00,65.0,56.0,29.88,WSW,245,1.0,3.0,72,0.00,,,0.00,,2014-09-30 14:12:00,
2014-09-30 10:23:00,66.0,56.0,29.88,WSW,255,0.0,3.0,71,0.00,,,0.00,,2014-09-30 14:23:00,
2014-09-30 10:52:00,67.0,57.0,29.89,NW,317,5.0,10.0,70,0.00,,,0.00,,2014-09-30 14:52:00,
2014-09-30 11:12:00,67.0,57.0,29.88,NW,314,2.0,3.0,70,0.00,,,0.00,,2014-09-30 15:12:00,
2014-09-30 11:22:00,68.0,57.0,29.88,WNW,295,2.0,5.0,69,0.00,,,0.00,,2014-09-30 15:22:00,
2014-09-30 11:43:00,70.0,59.0,29.88,NW,315,1.0,5.0,67,0.00,,,0.00,,2014-09-30 15:43:00,
2014-09-30 11:54:00,71.0,59.0,29.88,West,276,3.0,7.0,66,0.00,,,0.00,,2014-09-30 15:54:00,
2014-09-30 12:13:00,72.0,60.0,29.88,NW,305,2.0,9.0,67,0.00,,,0.00,,2014-09-30 16:13:00,
2014-09-30 12:24:00,71.0,60.0,29.88,West,268,2.0,5.0,68,0.00,,,0.00,,2014-09-30 16:24:00,
2014-09-30 12:44:00,72.0,60.0,29.88,West,262,3.0,7.0,67,0.00,,,0.00,,2014-09-30 16:44:00,
2014-09-30 12:53:00,71.0,60.0,29.88,WSW,255,0.0,7.0,68,0.00,,,0.00,,2014-09-30 16:53:00,
2014-09-30 13:23:00,72.0,62.0,29.87,NNW,334,5.0,8.0,71,0.00,,,0.00,,2014-09-30 17:23:00,
2014-09-30 13:53:00,75.0,63.0,29.87,WNW,301,2.0,6.0,66,0.00,,,0.00,,2014-09-30 17:53:00,
2014-09-30 14:13:00,75.0,62.0,29.86,NW,309,1.0,7.0,65,0.00,,,0.00,,2014-09-30 18:13:00,
2014-09-30 14:22:00,76.0,63.0,29.86,NNW,327,3.0,8.0,65,0.00,,,0.00,,2014-09-30 18:22:00,
2014-09-30 14:42:00,75.0,62.0,29.85,WNW,299,2.0,10.0,65,0.00,,,0.00,,2014-09-30 18:42:00,
2014-09-30 14:53:00,76.0,64.0,29.85,NNW,332,3.0,8.0,67,0.00,,,0.00,,2014-09-30 18:53:00,
2014-09-30 15:12:00,73.0,61.0,29.85,WSW,257,2.0,9.0,67,0.00,,,0.00,,2014-09-30 19:12:00,
2014-09-30 15:22:00,73.0,62.0,29.85,NW,309,1.0,8.0,69,0.00,,,0.00,,2014-09-30 19:22:00,
2014-09-30 15:42:00,73.0,61.0,29.85,WNW,301,6.0,9.0,67,0.00,,,0.00,,2014-09-30 19:42:00,
2014-09-30 15:52:00,73.0,62.0,29.85,WNW,303,3.0,9.0,69,0.00,,,0.00,,2014-09-30 19:52:00,
2014-09-30 16:13:00,73.0,63.0,29.85,NNW,335,1.0,7.0,72,0.00,,,0.00,,2014-09-30 20:13:00,
2014-09-30 16:23:00,73.0,63.0,29.85,NW,312,3.0,9.0,70,0.00,,,0.00,,2014-09-30 20:23:00,
2014-09-30 16:42:00,73.0,63.0,29.85,NW,312,3.0,8.0,72,0.00,,,0.00,,2014-09-30 20:42:00,
2014-09-30 16:52:00,72.0,62.0,29.85,WNW,299,1.0,12.0,70,0.00,,,0.00,,2014-09-30 20:52:00,
2014-09-30 17:13:00,73.0,62.0,29.84,NW,313,3.0,9.0,69,0.00,,,0.00,,2014-09-30 21:13:00,
2014-09-30 17:22:00,71.0,62.0,29.85,NW,324,5.0,10.0,73,0.00,,,0.00,,2014-09-30 21:22:00,
2014-09-30 17:44:00,71.0,62.0,29.85,NW,317,3.0,7.0,73,0.00,,,0.00,,2014-09-30 21:44:00,
2014-09-30 17:53:00,70.0,61.0,29.85,NNW,336,3.0,8.0,73,0.00,,,0.00,,2014-09-30 21:53:00,
2014-09-30 18:23:00,69.0,61.0,29.86,NW,313,5.0,9.0,75,0.00,,,0.00,,2014-09-30 22:23:00,
2014-09-30 18:53:00,67.0,60.0,29.87,NW,313,1.0,6.0,78,0.00,,,0.00,,2014-09-30 22:53:00,
2014-09-30 19:12:00,65.0,59.0,29.88,NW,310,5.0,10.0,80,0.00,,,0.00,,2014-09-30 23:12:00,
2014-09-30 19:23:00,65.0,59.0,29.88,NW,323,3.0,9.0,80,0.00,,,0.00,,2014-09-30 23:23:00,
2014-09-30 19:43:00,63.0,57.0,29.89,NNW,344,3.0,12.0,82,0.00,,,0.00,,2014-09-30 23:43:00,
2014-09-30 19:53:00,63.0,58.0,29.88,NNW,334,5.0,9.0,83,0.00,,,0.00,,2014-09-30 23:53:00,
2014-09-30 20:22:00,62.0,57.0,29.89,North,4,2.0,8.0,83,0.00,,,0.00,,2014-10-01 00:22:00,
2014-09-30 20:42:00,61.0,56.0,29.89,North,349,1.0,7.0,83,0.00,,,0.00,,2014-10-01 00:42:00,
2014-09-30 20:52:00,60.0,55.0,29.89,North,355,0.0,6.0,83,0.00,,,0.00,,2014-10-01 00:52:00,